createdAt,value
2023-03-06T00:09:47.494Z,2.63
2023-03-06T00:20:10.886Z,2.75
2023-03-06T00:30:32.133Z,2.33
2023-03-06T00:40:53.495Z,2.67
2023-03-06T00:51:17.419Z,2.67
2023-03-06T01:01:38.352Z,2.85
2023-03-06T01:11:59.604Z,2.55
2023-03-06T01:22:21.821Z,2.88
2023-03-06T01:32:43.180Z,3.05
2023-03-06T01:43:26.382Z,3.35
2023-03-06T01:53:48.263Z,3.22
2023-03-06T02:04:10.330Z,3.40
2023-03-06T02:14:31.333Z,3.13
2023-03-06T02:25:08.116Z,2.90
2023-03-06T02:35:31.812Z,3.28
2023-03-06T02:45:53.172Z,2.75
2023-03-06T02:56:15.377Z,3.10
2023-03-06T03:06:37.081Z,3.17
2023-03-06T03:16:59.794Z,2.83
2023-03-06T03:27:21.561Z,3.10
2023-03-06T03:37:42.910Z,3.88
2023-03-06T03:48:04.749Z,4.15
2023-03-06T03:58:26.318Z,3.95
2023-03-06T04:08:48.030Z,3.45
2023-03-06T04:19:12.034Z,3.38
2023-03-06T04:29:35.085Z,3.65
2023-03-06T04:39:57.180Z,4.22
2023-03-06T04:50:19.714Z,3.85
2023-03-06T05:00:40.976Z,3.97
2023-03-06T05:11:03.882Z,4.05
2023-03-06T05:21:25.198Z,5.10
2023-03-06T05:31:46.523Z,4.57
2023-03-06T05:42:08.155Z,4.80
2023-03-06T05:52:29.582Z,4.40
2023-03-06T06:02:50.781Z,4.40
2023-03-06T06:13:12.170Z,5.00
2023-03-06T06:23:33.314Z,4.45
2023-03-06T06:33:54.336Z,4.32
2023-03-06T06:44:16.366Z,3.90
2023-03-06T06:54:37.481Z,4.38
2023-03-06T07:05:05.943Z,4.95
2023-03-06T07:15:30.024Z,5.00
2023-03-06T07:25:51.344Z,4.93
2023-03-06T07:36:13.840Z,4.72
2023-03-06T07:46:35.854Z,4.93
2023-03-06T07:56:57.214Z,4.65
2023-03-06T08:07:18.137Z,5.30
2023-03-06T08:17:39.734Z,5.20
2023-03-06T08:28:01.139Z,4.97
2023-03-06T08:38:22.546Z,5.25
2023-03-06T08:48:44.004Z,4.55
2023-03-06T08:59:06.532Z,4.82
2023-03-06T09:09:28.134Z,4.70
2023-03-06T09:19:50.785Z,4.88
2023-03-06T09:30:12.522Z,4.88
2023-03-06T09:40:57.785Z,4.88
2023-03-06T09:51:22.434Z,4.93
2023-03-06T10:01:46.594Z,4.50
2023-03-06T10:12:28.857Z,4.60
2023-03-06T10:23:05.162Z,4.40
2023-03-06T10:34:09.282Z,4.50
2023-03-06T10:44:30.841Z,4.88
2023-03-06T10:54:52.314Z,5.22
2023-03-06T11:05:20.800Z,4.30
2023-03-06T11:15:56.642Z,3.83
2023-03-06T11:26:18.025Z,4.65
2023-03-06T11:36:40.483Z,4.57
2023-03-06T11:47:19.769Z,4.32
2023-03-06T11:57:53.161Z,4.32
2023-03-06T12:08:22.648Z,4.45
2023-03-06T12:18:55.751Z,4.35
2023-03-06T12:29:25.653Z,4.88
2023-03-06T12:39:49.458Z,4.88
2023-03-06T12:50:25.580Z,4.63
2023-03-06T13:01:03.572Z,5.73
2023-03-06T13:11:30.957Z,5.07
2023-03-06T13:21:55.221Z,4.93
2023-03-06T13:32:19.257Z,5.07
2023-03-06T13:42:43.636Z,5.45
2023-03-06T13:53:27.426Z,5.10
2023-03-06T14:04:00.419Z,5.15
2023-03-06T14:14:33.368Z,4.95
2023-03-06T14:24:58.085Z,5.18
2023-03-06T14:35:31.815Z,4.80
2023-03-06T14:45:55.886Z,5.05
2023-03-06T14:56:22.463Z,4.82
2023-03-06T15:06:44.399Z,4.55
2023-03-06T15:17:17.731Z,4.43
2023-03-06T15:27:39.115Z,4.80
2023-03-06T15:38:01.292Z,4.78
2023-03-06T15:48:22.392Z,5.60
2023-03-06T15:58:43.894Z,5.28
2023-03-06T16:09:06.036Z,4.60
2023-03-06T16:19:28.022Z,4.47
2023-03-06T16:29:49.406Z,4.65
2023-03-06T16:40:23.683Z,4.20
2023-03-06T16:50:45.171Z,4.85
2023-03-06T17:01:07.456Z,3.78
2023-03-06T17:11:28.820Z,4.28
2023-03-06T17:21:50.517Z,3.92
2023-03-06T17:32:11.801Z,3.97
2023-03-06T17:42:32.936Z,3.97
2023-03-06T17:52:54.334Z,4.00
2023-03-06T18:03:15.987Z,4.28
2023-03-06T18:13:40.211Z,3.85
2023-03-06T18:24:01.314Z,4.25
2023-03-06T18:34:23.001Z,4.15
2023-03-06T18:44:47.821Z,4.45
2023-03-06T18:55:10.180Z,4.45
2023-03-06T19:05:31.557Z,4.20
2023-03-06T19:15:56.969Z,4.35
2023-03-06T19:26:21.492Z,4.68
2023-03-06T19:36:42.910Z,4.28
2023-03-06T19:47:03.876Z,4.10
2023-03-06T19:57:25.024Z,4.18
2023-03-06T20:07:46.380Z,4.28
2023-03-06T20:18:07.422Z,3.60
2023-03-06T20:28:28.917Z,5.25
2023-03-06T20:38:50.168Z,4.85
2023-03-06T20:49:12.411Z,4.88
2023-03-06T20:59:33.901Z,4.97
2023-03-06T21:09:55.290Z,4.82
2023-03-06T21:20:16.423Z,5.78
2023-03-06T21:30:37.536Z,4.55
2023-03-06T21:41:19.168Z,5.03
2023-03-06T21:51:40.365Z,5.57
2023-03-06T22:02:01.703Z,5.70
2023-03-06T22:12:22.614Z,5.20
2023-03-06T22:22:44.080Z,5.80
2023-03-06T22:33:05.225Z,6.47
2023-03-06T22:43:26.206Z,5.97
2023-03-06T22:53:48.773Z,6.57
2023-03-06T23:04:11.495Z,6.40
2023-03-06T23:14:33.119Z,7.15
2023-03-06T23:25:13.503Z,6.25
2023-03-06T23:35:36.733Z,7.00
2023-03-06T23:45:58.434Z,6.97
2023-03-06T23:56:19.690Z,6.72
